Time;durP1;ratioP1;P1;durP2;ratioP2;P2;SDS_P1;SDS_P2;PMS_P1;PMS_P2;Temp;Humidity;BMP_temperature;BMP_pressure;BME280_temperature;BME280_humidity;BME280_pressure;Samples;Min_cycle;Max_cycle;Signal;HPM_P1;HPM_P2
2021/11/10 00:02:05;;;;;;;12.93;10.93;;;;;;;;;;4966492;28;20197;-74
2021/11/10 00:04:32;;;;;;;11.27;9.48;;;;;;;;;;4964402;28;20257;-74
2021/11/10 00:06:59;;;;;;;14.68;11.88;;;;;;;;;;4971044;28;20260;-76
2021/11/10 00:09:30;;;;;;;14.13;10.57;;;;;;;;;;4961499;28;20232;-73
2021/11/10 00:11:57;;;;;;;10.82;9.55;;;;;;;;;;4972053;28;20194;-73
2021/11/10 00:14:24;;;;;;;14.65;10.30;;;;;;;;;;4973083;28;20547;-73
2021/11/10 00:16:55;;;;;;;11.60;9.43;;;;;;;;;;4973460;28;20194;-75
2021/11/10 00:19:22;;;;;;;17.13;9.52;;;;;;;;;;4966945;28;20224;-75
2021/11/10 00:21:50;;;;;;;10.85;8.77;;;;;;;;;;4974110;28;20202;-75
2021/11/10 00:24:17;;;;;;;12.80;9.13;;;;;;;;;;4972782;28;20202;-75
2021/11/10 00:26:44;;;;;;;12.95;8.65;;;;;;;;;;4974572;28;20268;-72
2021/11/10 00:29:11;;;;;;;13.90;9.20;;;;;;;;;;4973591;28;20198;-73
2021/11/10 00:31:38;;;;;;;11.00;9.43;;;;;;;;;;4971451;28;20674;-73
2021/11/10 00:34:06;;;;;;;9.90;7.82;;;;;;;;;;4972434;28;20202;-75
2021/11/10 00:36:33;;;;;;;10.02;8.65;;;;;;;;;;4979021;28;20286;-75
2021/11/10 00:39:00;;;;;;;14.77;9.35;;;;;;;;;;4954687;28;20237;-75
2021/11/10 00:41:27;;;;;;;9.88;8.70;;;;;;;;;;4965194;28;20540;-74
2021/11/10 00:43:59;;;;;;;8.85;7.93;;;;;;;;;;4972148;28;20198;-75
2021/11/10 00:46:26;;;;;;;12.27;7.55;;;;;;;;;;4969938;28;20549;-75
2021/11/10 00:48:53;;;;;;;11.60;7.07;;;;;;;;;;4965747;28;20285;-75
2021/11/10 00:51:22;;;;;;;10.68;7.40;;;;;;;;;;4972553;28;20205;-75
2021/11/10 00:53:49;;;;;;;7.80;7.00;;;;;;;;;;4969328;28;20208;-75
2021/11/10 00:56:16;;;;;;;10.18;7.10;;;;;;;;;;4971982;28;20675;-75
2021/11/10 00:58:43;;;;;;;9.52;8.10;;;;;;;;;;4973674;28;20256;-75
2021/11/10 01:01:10;;;;;;;10.13;6.88;;;;;;;;;;4972105;28;20283;-75
2021/11/10 01:03:37;;;;;;;9.65;7.78;;;;;;;;;;4968579;28;20209;-74
2021/11/10 01:06:04;;;;;;;8.20;6.85;;;;;;;;;;4972424;28;20246;-75
2021/11/10 01:08:33;;;;;;;11.02;7.20;;;;;;;;;;4965063;28;20285;-73
2021/11/10 01:11:00;;;;;;;9.90;6.57;;;;;;;;;;4960792;28;20655;-73
2021/11/10 01:13:27;;;;;;;7.57;6.78;;;;;;;;;;4971966;28;20256;-75
2021/11/10 01:15:54;;;;;;;6.78;6.03;;;;;;;;;;4970210;28;20207;-76
2021/11/10 01:18:22;;;;;;;7.60;6.35;;;;;;;;;;4963504;28;20194;-73
2021/11/10 01:20:49;;;;;;;7.95;6.75;;;;;;;;;;4972973;28;20200;-75
2021/11/10 01:23:16;;;;;;;7.10;5.60;;;;;;;;;;4972048;28;20197;-75
2021/11/10 01:25:44;;;;;;;9.27;5.57;;;;;;;;;;4975161;28;20244;-75
2021/11/10 01:28:11;;;;;;;11.48;5.95;;;;;;;;;;4976622;28;20292;-75
2021/11/10 01:30:40;;;;;;;9.98;5.68;;;;;;;;;;4976928;28;20567;-75
2021/11/10 01:33:07;;;;;;;9.60;5.38;;;;;;;;;;4973128;28;20205;-75
2021/11/10 01:35:34;;;;;;;11.57;5.90;;;;;;;;;;4978867;28;20197;-75
2021/11/10 01:38:01;;;;;;;7.88;6.32;;;;;;;;;;4974698;28;20646;-75
2021/11/10 01:40:29;;;;;;;8.48;6.25;;;;;;;;;;4960457;28;20691;-75
2021/11/10 01:43:05;;;;;;;5.95;5.35;;;;;;;;;;4976818;28;20236;-76
2021/11/10 01:45:34;;;;;;;6.95;5.40;;;;;;;;;;4977796;28;20201;-75
2021/11/10 01:48:01;;;;;;;7.88;5.60;;;;;;;;;;4975862;28;20319;-75
2021/11/10 01:50:28;;;;;;;10.40;5.55;;;;;;;;;;4977109;28;20204;-75
2021/11/10 01:52:55;;;;;;;6.45;5.68;;;;;;;;;;4973868;28;20316;-75
2021/11/10 01:55:22;;;;;;;10.82;5.63;;;;;;;;;;4976125;28;20201;-76
2021/11/10 01:57:49;;;;;;;7.03;5.38;;;;;;;;;;4966837;28;20660;-75
2021/11/10 02:00:19;;;;;;;6.65;5.88;;;;;;;;;;4965980;28;20273;-73
2021/11/10 02:02:46;;;;;;;7.22;5.28;;;;;;;;;;4966427;28;20229;-75
2021/11/10 02:05:14;;;;;;;7.47;6.32;;;;;;;;;;4975225;28;20208;-75
2021/11/10 02:07:41;;;;;;;10.50;5.72;;;;;;;;;;4958256;28;20215;-73
2021/11/10 02:10:09;;;;;;;7.18;5.43;;;;;;;;;;4957908;28;20209;-76
2021/11/10 02:12:37;;;;;;;7.72;4.82;;;;;;;;;;4974043;28;20663;-75
2021/11/10 02:15:04;;;;;;;9.43;5.55;;;;;;;;;;4974421;28;20256;-75
2021/11/10 02:17:35;;;;;;;6.60;5.28;;;;;;;;;;4974967;28;20193;-76
2021/11/10 02:20:02;;;;;;;6.43;5.57;;;;;;;;;;4955898;28;20293;-75
2021/11/10 02:22:32;;;;;;;8.38;5.15;;;;;;;;;;4972116;28;20204;-75
2021/11/10 02:25:01;;;;;;;6.78;4.45;;;;;;;;;;4972316;28;20635;-75
2021/11/10 02:27:33;;;;;;;6.53;5.70;;;;;;;;;;4975845;28;20264;-75
2021/11/10 02:30:00;;;;;;;6.35;4.47;;;;;;;;;;4973921;28;20548;-75
2021/11/10 02:32:27;;;;;;;7.47;5.30;;;;;;;;;;4967676;28;20292;-75
2021/11/10 02:34:55;;;;;;;5.95;5.03;;;;;;;;;;4968207;28;20194;-75
2021/11/10 02:37:22;;;;;;;5.82;5.10;;;;;;;;;;4975059;28;20198;-75
2021/11/10 02:39:52;;;;;;;6.18;4.60;;;;;;;;;;4964433;28;20197;-75
2021/11/10 02:42:20;;;;;;;6.75;5.13;;;;;;;;;;4970548;28;20486;-75
2021/11/10 02:44:48;;;;;;;5.68;5.10;;;;;;;;;;4958818;28;20608;-75
2021/11/10 02:47:16;;;;;;;6.30;4.63;;;;;;;;;;4967517;28;20218;-75
2021/11/10 02:49:44;;;;;;;5.03;4.35;;;;;;;;;;4968517;28;20201;-75
2021/11/10 02:52:12;;;;;;;5.72;5.00;;;;;;;;;;4976988;28;20579;-75
2021/11/10 02:54:41;;;;;;;7.40;4.60;;;;;;;;;;4962909;28;20210;-75
2021/11/10 02:57:10;;;;;;;5.65;5.05;;;;;;;;;;4972515;28;20193;-75
2021/11/10 02:59:37;;;;;;;5.57;4.45;;;;;;;;;;4975439;28;20590;-76
2021/11/10 03:02:06;;;;;;;5.25;4.45;;;;;;;;;;4974730;28;20205;-76
2021/11/10 03:04:34;;;;;;;4.45;3.67;;;;;;;;;;4977597;28;20210;-75
2021/11/10 03:07:01;;;;;;;6.28;5.25;;;;;;;;;;4977580;28;20209;-75
2021/11/10 03:09:29;;;;;;;5.55;4.32;;;;;;;;;;4969431;28;20651;-75
2021/11/10 03:11:58;;;;;;;5.15;4.65;;;;;;;;;;4974760;28;20202;-75
2021/11/10 03:14:26;;;;;;;6.10;5.10;;;;;;;;;;4975253;28;20205;-76
2021/11/10 03:16:53;;;;;;;5.85;4.88;;;;;;;;;;4974864;28;20209;-76
2021/11/10 03:19:21;;;;;;;5.82;5.18;;;;;;;;;;4966952;28;20616;-75
2021/11/10 03:21:48;;;;;;;6.45;5.38;;;;;;;;;;4973699;28;20193;-75
2021/11/10 03:24:15;;;;;;;4.53;4.07;;;;;;;;;;4960870;28;20206;-75
2021/11/10 03:26:43;;;;;;;7.13;5.30;;;;;;;;;;4968278;28;20194;-75
2021/11/10 03:29:10;;;;;;;5.55;4.63;;;;;;;;;;4973141;28;20213;-75
2021/11/10 03:31:40;;;;;;;6.00;4.65;;;;;;;;;;4969595;28;20248;-75
2021/11/10 03:34:07;;;;;;;4.63;4.07;;;;;;;;;;4976838;28;20570;-75
2021/11/10 03:36:35;;;;;;;6.82;5.72;;;;;;;;;;4974408;28;20202;-75
2021/11/10 03:39:02;;;;;;;5.82;4.28;;;;;;;;;;4970005;28;20193;-76
2021/11/10 03:41:29;;;;;;;5.70;4.32;;;;;;;;;;4961533;28;20206;-76
2021/11/10 03:43:56;;;;;;;7.28;4.63;;;;;;;;;;4972576;28;20461;-75
2021/11/10 03:46:24;;;;;;;7.22;5.72;;;;;;;;;;4965723;28;20210;-76
2021/11/10 03:48:53;;;;;;;6.13;5.20;;;;;;;;;;4972092;28;20220;-76
2021/11/10 03:51:20;;;;;;;6.65;5.05;;;;;;;;;;4959288;28;20197;-77
2021/11/10 03:53:48;;;;;;;5.47;4.85;;;;;;;;;;4972317;28;20197;-76
2021/11/10 03:56:15;;;;;;;4.90;4.40;;;;;;;;;;4971551;28;20206;-77
2021/11/10 03:58:42;;;;;;;7.97;4.97;;;;;;;;;;4968140;28;20193;-77
2021/11/10 04:01:10;;;;;;;7.28;5.28;;;;;;;;;;4972005;28;20265;-77
2021/11/10 04:03:37;;;;;;;8.23;5.00;;;;;;;;;;4973692;28;20202;-76
2021/11/10 04:06:06;;;;;;;10.07;5.07;;;;;;;;;;4971652;28;20197;-77
2021/11/10 04:08:33;;;;;;;6.32;4.65;;;;;;;;;;4968685;28;20302;-77
2021/11/10 04:11:01;;;;;;;6.95;4.80;;;;;;;;;;4972504;28;20202;-77
2021/11/10 04:13:29;;;;;;;6.45;4.78;;;;;;;;;;4968328;28;20209;-77
2021/11/10 04:15:56;;;;;;;6.28;4.30;;;;;;;;;;4972558;28;20268;-77
2021/11/10 04:18:23;;;;;;;8.00;5.50;;;;;;;;;;4971229;28;20194;-77
2021/11/10 04:20:50;;;;;;;9.07;4.90;;;;;;;;;;4971843;28;20253;-76
2021/11/10 04:23:19;;;;;;;5.35;4.60;;;;;;;;;;4969609;28;20248;-78
2021/11/10 04:25:46;;;;;;;6.78;5.20;;;;;;;;;;4973257;28;20670;-77
2021/11/10 04:28:13;;;;;;;7.97;4.95;;;;;;;;;;4971780;28;20354;-78
2021/11/10 04:30:40;;;;;;;7.15;5.15;;;;;;;;;;4953549;28;20229;-78
2021/11/10 04:33:07;;;;;;;7.05;4.43;;;;;;;;;;4965972;28;20660;-79
2021/11/10 04:35:38;;;;;;;5.65;5.05;;;;;;;;;;4971291;28;20567;-78
2021/11/10 04:38:05;;;;;;;5.85;5.03;;;;;;;;;;4968852;28;20199;-78
2021/11/10 04:40:33;;;;;;;6.25;4.78;;;;;;;;;;4971898;28;20620;-78
2021/11/10 04:43:00;;;;;;;4.43;4.03;;;;;;;;;;4970044;28;20201;-78
2021/11/10 04:45:31;;;;;;;6.28;5.68;;;;;;;;;;4973051;28;20663;-77
2021/11/10 04:47:58;;;;;;;6.15;5.28;;;;;;;;;;4959290;28;20699;-77
2021/11/10 04:50:25;;;;;;;4.82;4.32;;;;;;;;;;4970603;28;20424;-77
2021/11/10 04:52:52;;;;;;;7.05;5.28;;;;;;;;;;4957689;28;20202;-77
2021/11/10 04:55:19;;;;;;;7.68;5.10;;;;;;;;;;4953621;28;20205;-77
2021/11/10 04:57:48;;;;;;;6.45;4.72;;;;;;;;;;4953503;28;20203;-77
2021/11/10 05:00:15;;;;;;;6.82;4.68;;;;;;;;;;4968877;28;20318;-77
2021/11/10 05:02:42;;;;;;;11.77;6.28;;;;;;;;;;4969010;28;20201;-77
2021/11/10 05:05:09;;;;;;;5.63;4.40;;;;;;;;;;4972598;28;20197;-77
2021/11/10 05:07:37;;;;;;;6.55;4.90;;;;;;;;;;4971487;28;20193;-77
2021/11/10 05:10:05;;;;;;;5.57;4.97;;;;;;;;;;4969135;28;20582;-77
2021/11/10 05:12:32;;;;;;;5.60;4.40;;;;;;;;;;4972288;28;20337;-77
2021/11/10 05:15:00;;;;;;;5.38;4.50;;;;;;;;;;4972705;28;20201;-78
2021/11/10 05:17:28;;;;;;;6.03;5.05;;;;;;;;;;4965997;28;20202;-77
2021/11/10 05:19:55;;;;;;;8.20;5.85;;;;;;;;;;4970297;28;20539;-77
2021/11/10 05:22:22;;;;;;;5.35;4.85;;;;;;;;;;4972006;28;20552;-78
2021/11/10 05:24:49;;;;;;;5.63;4.50;;;;;;;;;;4969848;28;20205;-77
2021/11/10 05:27:16;;;;;;;8.23;5.50;;;;;;;;;;4972639;28;20197;-77
2021/11/10 05:29:43;;;;;;;8.70;6.07;;;;;;;;;;4969461;28;20240;-76
2021/11/10 05:32:12;;;;;;;7.03;5.65;;;;;;;;;;4968821;28;20205;-77
2021/11/10 05:34:39;;;;;;;6.40;5.03;;;;;;;;;;4979571;28;20233;-77
2021/11/10 05:37:06;;;;;;;7.60;6.13;;;;;;;;;;4988807;28;20255;-77
2021/11/10 05:39:33;;;;;;;5.65;5.13;;;;;;;;;;4973210;28;20301;-77
2021/11/10 05:42:00;;;;;;;5.88;5.30;;;;;;;;;;4971387;28;20193;-77
2021/11/10 05:44:28;;;;;;;7.28;5.03;;;;;;;;;;4968122;28;20194;-77
2021/11/10 05:46:55;;;;;;;6.70;6.10;;;;;;;;;;4953404;28;20202;-77
2021/11/10 05:49:23;;;;;;;6.53;4.47;;;;;;;;;;4964620;28;20227;-77
2021/11/10 05:51:50;;;;;;;6.18;5.03;;;;;;;;;;4971915;28;20201;-77
2021/11/10 05:54:17;;;;;;;7.95;5.00;;;;;;;;;;4968508;28;20543;-77
2021/11/10 05:56:46;;;;;;;10.63;5.43;;;;;;;;;;4972483;28;20208;-77
2021/11/10 05:59:14;;;;;;;6.25;5.47;;;;;;;;;;4965895;28;20240;-77
2021/11/10 06:01:41;;;;;;;6.97;5.47;;;;;;;;;;4971150;28;20216;-77
2021/11/10 06:04:09;;;;;;;6.45;5.72;;;;;;;;;;4971702;28;20667;-77
2021/11/10 06:06:38;;;;;;;6.45;4.82;;;;;;;;;;4971650;28;20233;-77
2021/11/10 06:09:05;;;;;;;6.13;4.80;;;;;;;;;;4961452;28;20288;-76
2021/11/10 06:11:32;;;;;;;6.32;5.22;;;;;;;;;;4971471;28;20198;-76
2021/11/10 06:13:59;;;;;;;5.40;4.53;;;;;;;;;;4972235;28;20201;-76
2021/11/10 06:16:27;;;;;;;5.93;5.22;;;;;;;;;;4975467;28;20208;-77
2021/11/10 06:18:54;;;;;;;6.28;5.55;;;;;;;;;;4966673;28;20196;-77
2021/11/10 06:21:21;;;;;;;6.40;4.70;;;;;;;;;;4973633;28;20292;-77
2021/11/10 06:23:50;;;;;;;7.28;4.97;;;;;;;;;;4972502;28;20317;-78
2021/11/10 06:26:17;;;;;;;5.30;4.80;;;;;;;;;;4974681;28;20201;-77
2021/11/10 06:28:44;;;;;;;9.05;4.80;;;;;;;;;;4974185;28;20222;-77
2021/11/10 06:31:11;;;;;;;8.43;5.70;;;;;;;;;;4969236;28;20208;-78
2021/11/10 06:33:38;;;;;;;9.48;5.22;;;;;;;;;;4968209;28;20216;-78
2021/11/10 06:36:05;;;;;;;6.75;4.78;;;;;;;;;;4983293;28;20197;-78
2021/11/10 06:38:32;;;;;;;8.75;6.20;;;;;;;;;;4969643;28;20276;-78
2021/11/10 06:41:01;;;;;;;6.72;4.65;;;;;;;;;;4973994;28;20198;-78
2021/11/10 06:43:28;;;;;;;8.00;5.10;;;;;;;;;;4975155;28;20208;-78
2021/11/10 06:45:56;;;;;;;6.07;4.90;;;;;;;;;;4973693;28;20198;-78
2021/11/10 06:48:23;;;;;;;6.03;4.75;;;;;;;;;;4960341;28;20198;-79
2021/11/10 06:50:50;;;;;;;7.18;5.47;;;;;;;;;;4974246;28;20710;-78
2021/11/10 06:53:17;;;;;;;6.88;5.15;;;;;;;;;;4968720;28;20203;-77
2021/11/10 06:55:44;;;;;;;5.40;5.00;;;;;;;;;;4973962;28;20252;-77
2021/11/10 06:58:13;;;;;;;5.68;4.60;;;;;;;;;;4973225;28;20212;-77
2021/11/10 07:00:40;;;;;;;4.93;4.43;;;;;;;;;;4973504;28;20225;-76
2021/11/10 07:03:08;;;;;;;8.98;4.75;;;;;;;;;;4959591;28;20206;-78
2021/11/10 07:05:35;;;;;;;4.90;4.40;;;;;;;;;;4974404;28;20197;-78
2021/11/10 07:08:02;;;;;;;5.95;5.03;;;;;;;;;;4969271;28;20210;-77
2021/11/10 07:10:30;;;;;;;6.18;5.55;;;;;;;;;;4968963;28;20225;-78
2021/11/10 07:12:57;;;;;;;4.90;4.47;;;;;;;;;;4972909;28;20201;-78
2021/11/10 07:15:26;;;;;;;6.90;5.97;;;;;;;;;;4973297;28;20202;-77
2021/11/10 07:17:53;;;;;;;7.05;4.88;;;;;;;;;;4962335;28;20195;-77
2021/11/10 07:20:20;;;;;;;5.97;5.00;;;;;;;;;;4955123;28;20205;-77
2021/11/10 07:22:47;;;;;;;7.47;4.80;;;;;;;;;;4968902;28;20673;-77
2021/11/10 07:25:14;;;;;;;6.32;4.90;;;;;;;;;;4979432;28;20213;-77
2021/11/10 07:27:42;;;;;;;6.25;4.45;;;;;;;;;;4973011;28;20197;-77
2021/11/10 07:30:11;;;;;;;6.40;5.57;;;;;;;;;;4973959;28;20225;-77
2021/11/10 07:32:40;;;;;;;9.77;5.47;;;;;;;;;;4970327;28;20204;-77
2021/11/10 07:35:08;;;;;;;8.57;5.03;;;;;;;;;;4972874;28;20209;-77
2021/11/10 07:37:35;;;;;;;6.30;5.70;;;;;;;;;;4974019;28;20566;-78
2021/11/10 07:40:02;;;;;;;6.05;5.38;;;;;;;;;;4964977;28;20194;-77
2021/11/10 07:42:29;;;;;;;8.15;5.75;;;;;;;;;;4955787;28;20214;-77
2021/11/10 07:45:05;;;;;;;7.00;4.60;;;;;;;;;;4973893;28;20244;-76
2021/11/10 07:47:39;;;;;;;7.90;5.95;;;;;;;;;;4967577;28;20205;-75
2021/11/10 07:50:08;;;;;;;8.93;6.75;;;;;;;;;;4967172;28;20766;-75
2021/11/10 07:52:35;;;;;;;6.07;4.68;;;;;;;;;;4968294;28;20198;-76
2021/11/10 07:55:03;;;;;;;8.45;6.22;;;;;;;;;;4965666;28;20202;-76
2021/11/10 07:57:30;;;;;;;7.45;5.00;;;;;;;;;;4972933;28;20206;-76
2021/11/10 07:59:57;;;;;;;7.00;6.05;;;;;;;;;;4967881;28;20226;-76
2021/11/10 08:02:24;;;;;;;6.10;5.03;;;;;;;;;;4965747;28;20210;-76
2021/11/10 08:04:51;;;;;;;5.80;5.22;;;;;;;;;;4966418;28;20201;-76
2021/11/10 08:07:19;;;;;;;8.70;5.45;;;;;;;;;;4961614;28;20197;-77
2021/11/10 08:09:46;;;;;;;6.38;5.78;;;;;;;;;;4968444;28;20217;-76
2021/11/10 08:12:13;;;;;;;7.60;5.30;;;;;;;;;;4970568;28;20310;-76
2021/11/10 08:14:40;;;;;;;7.30;5.60;;;;;;;;;;4973600;28;20564;-75
2021/11/10 08:17:07;;;;;;;7.25;6.10;;;;;;;;;;4972204;28;20214;-76
2021/11/10 08:19:35;;;;;;;7.63;5.25;;;;;;;;;;4970341;28;20205;-76
2021/11/10 08:22:02;;;;;;;5.97;4.90;;;;;;;;;;4965178;28;20284;-75
2021/11/10 08:24:32;;;;;;;5.28;4.78;;;;;;;;;;4967964;28;20202;-76
2021/11/10 08:26:59;;;;;;;8.00;4.95;;;;;;;;;;4972668;28;20202;-75
2021/11/10 08:29:26;;;;;;;7.10;5.53;;;;;;;;;;4970115;28;20213;-75
2021/11/10 08:31:54;;;;;;;7.03;5.30;;;;;;;;;;4964269;28;20667;-75
2021/11/10 08:34:21;;;;;;;7.07;4.85;;;;;;;;;;4967139;28;20659;-76
2021/11/10 08:36:48;;;;;;;6.00;5.15;;;;;;;;;;4967939;28;20224;-76
2021/11/10 08:39:15;;;;;;;5.85;5.25;;;;;;;;;;4969792;28;20213;-77
2021/11/10 08:41:47;;;;;;;6.60;5.60;;;;;;;;;;4963082;28;20650;-77
2021/11/10 08:44:14;;;;;;;5.60;5.10;;;;;;;;;;4970071;28;20230;-77
2021/11/10 08:46:42;;;;;;;8.23;5.68;;;;;;;;;;4967834;28;20568;-77
2021/11/10 08:49:09;;;;;;;5.03;4.55;;;;;;;;;;4970030;28;20228;-77
2021/11/10 08:51:36;;;;;;;7.72;5.10;;;;;;;;;;4972698;28;20197;-75
2021/11/10 08:54:03;;;;;;;5.85;4.65;;;;;;;;;;4966657;28;20252;-77
2021/11/10 08:56:30;;;;;;;7.00;5.07;;;;;;;;;;4969485;28;20229;-76
2021/11/10 08:58:59;;;;;;;11.02;6.07;;;;;;;;;;4970944;28;20667;-76
2021/11/10 09:01:26;;;;;;;6.78;5.95;;;;;;;;;;4969674;28;20644;-77
2021/11/10 09:03:53;;;;;;;8.40;5.85;;;;;;;;;;4963286;28;20276;-77
2021/11/10 09:06:20;;;;;;;7.20;5.20;;;;;;;;;;4969487;28;20540;-75
2021/11/10 09:08:47;;;;;;;6.35;5.75;;;;;;;;;;4964572;28;20605;-76
2021/11/10 09:11:15;;;;;;;8.82;5.55;;;;;;;;;;4972453;28;20701;-77
2021/11/10 09:13:42;;;;;;;5.47;4.93;;;;;;;;;;4971056;28;20292;-77
2021/11/10 09:16:11;;;;;;;7.28;6.55;;;;;;;;;;4966920;28;20202;-76
2021/11/10 09:18:38;;;;;;;6.38;5.78;;;;;;;;;;4972534;28;20280;-77
2021/11/10 09:21:06;;;;;;;7.35;5.50;;;;;;;;;;4971378;28;20200;-77
2021/11/10 09:23:34;;;;;;;6.60;5.40;;;;;;;;;;4972894;28;20202;-77
2021/11/10 09:26:01;;;;;;;6.65;5.55;;;;;;;;;;4967637;28;20213;-77
2021/11/10 09:28:28;;;;;;;9.05;5.50;;;;;;;;;;4970528;28;20664;-77
2021/11/10 09:30:55;;;;;;;7.50;5.85;;;;;;;;;;4972027;28;20218;-76
2021/11/10 09:33:24;;;;;;;5.50;4.57;;;;;;;;;;4965759;28;20202;-77
2021/11/10 09:35:52;;;;;;;5.40;4.68;;;;;;;;;;4979019;28;20202;-77
2021/11/10 09:38:19;;;;;;;5.40;4.72;;;;;;;;;;4964293;28;20228;-77
2021/11/10 09:40:47;;;;;;;5.65;4.85;;;;;;;;;;4972613;28;20559;-77
2021/11/10 09:43:15;;;;;;;8.27;5.68;;;;;;;;;;4955693;28;20197;-77
2021/11/10 09:45:42;;;;;;;8.10;5.10;;;;;;;;;;4959840;28;20809;-77
2021/11/10 09:48:13;;;;;;;7.07;5.80;;;;;;;;;;4964992;28;20206;-77
2021/11/10 09:50:43;;;;;;;5.72;5.20;;;;;;;;;;4972893;28;20829;-77
2021/11/10 09:53:10;;;;;;;6.55;4.90;;;;;;;;;;4959218;28;20198;-77
2021/11/10 09:55:38;;;;;;;5.38;4.85;;;;;;;;;;4976370;28;20198;-78
2021/11/10 09:58:05;;;;;;;5.03;4.53;;;;;;;;;;4975734;28;20241;-77
2021/11/10 10:00:33;;;;;;;7.30;5.18;;;;;;;;;;4976110;28;20225;-77
2021/11/10 10:03:02;;;;;;;4.53;4.07;;;;;;;;;;4975824;28;20647;-77
2021/11/10 10:05:29;;;;;;;5.63;4.28;;;;;;;;;;4974463;28;20289;-77
2021/11/10 10:07:58;;;;;;;5.88;5.28;;;;;;;;;;4969165;28;20204;-77
2021/11/10 10:10:26;;;;;;;7.32;4.68;;;;;;;;;;4966863;28;20209;-77
2021/11/10 10:12:53;;;;;;;8.80;4.88;;;;;;;;;;4957226;28;20206;-77
2021/11/10 10:15:21;;;;;;;4.57;4.18;;;;;;;;;;4969673;28;20206;-77
2021/11/10 10:17:56;;;;;;;7.35;4.25;;;;;;;;;;4975220;28;20631;-77
2021/11/10 10:20:24;;;;;;;5.38;3.78;;;;;;;;;;4976808;28;20246;-77
2021/11/10 10:22:51;;;;;;;4.45;4.03;;;;;;;;;;4974269;28;20202;-77
2021/11/10 10:25:20;;;;;;;5.57;5.00;;;;;;;;;;4972803;28;20193;-77
2021/11/10 10:27:55;;;;;;;6.88;4.25;;;;;;;;;;4974238;28;20205;-77
2021/11/10 10:30:30;;;;;;;5.22;3.55;;;;;;;;;;4975466;28;20219;-76
2021/11/10 10:32:59;;;;;;;6.05;4.40;;;;;;;;;;4970552;28;20193;-78
2021/11/10 10:35:47;;;;;;;4.38;3.50;;;;;;;;;;4974975;28;20193;-78
2021/11/10 10:38:15;;;;;;;4.97;4.35;;;;;;;;;;4968333;28;20202;-77
2021/11/10 10:40:44;;;;;;;4.00;3.60;;;;;;;;;;4975304;28;20198;-77
2021/11/10 10:43:12;;;;;;;5.35;4.30;;;;;;;;;;4971246;28;20209;-77
2021/11/10 10:45:40;;;;;;;4.35;3.95;;;;;;;;;;4974688;28;20216;-77
2021/11/10 10:48:08;;;;;;;6.22;3.97;;;;;;;;;;4975129;28;20193;-77
2021/11/10 10:50:37;;;;;;;4.82;4.15;;;;;;;;;;4972585;28;20209;-78
2021/11/10 10:53:05;;;;;;;4.82;3.78;;;;;;;;;;4971323;28;20202;-77
2021/11/10 10:55:33;;;;;;;4.15;3.78;;;;;;;;;;4969382;28;20235;-77
2021/11/10 10:58:02;;;;;;;6.85;4.43;;;;;;;;;;4975230;28;20205;-77
2021/11/10 11:00:30;;;;;;;4.72;3.88;;;;;;;;;;4974081;28;20249;-77
2021/11/10 11:02:57;;;;;;;5.63;4.40;;;;;;;;;;4958901;28;20203;-77
2021/11/10 11:05:37;;;;;;;4.57;4.07;;;;;;;;;;4959829;28;20206;-77
2021/11/10 11:08:19;;;;;;;3.70;3.22;;;;;;;;;;4975086;28;20201;-77
2021/11/10 11:10:46;;;;;;;5.35;4.20;;;;;;;;;;4972373;28;20626;-77
2021/11/10 11:13:18;;;;;;;4.65;3.72;;;;;;;;;;4975271;28;20634;-77
2021/11/10 11:15:58;;;;;;;3.78;3.47;;;;;;;;;;4974975;28;20228;-77
2021/11/10 11:18:25;;;;;;;5.35;3.90;;;;;;;;;;4975424;28;20279;-77
2021/11/10 11:20:52;;;;;;;6.65;4.65;;;;;;;;;;4970511;28;20197;-77
2021/11/10 11:23:19;;;;;;;8.13;3.72;;;;;;;;;;4967766;28;20273;-76
2021/11/10 11:25:47;;;;;;;4.95;3.25;;;;;;;;;;4972901;28;20260;-77
2021/11/10 11:28:16;;;;;;;4.40;4.00;;;;;;;;;;4969798;28;20206;-77
2021/11/10 11:30:45;;;;;;;7.80;4.30;;;;;;;;;;4973342;28;20224;-77
2021/11/10 11:33:13;;;;;;;5.53;4.03;;;;;;;;;;4971794;28;20206;-77
2021/11/10 11:35:41;;;;;;;4.30;3.88;;;;;;;;;;4969099;28;20209;-77
2021/11/10 11:38:10;;;;;;;6.93;4.22;;;;;;;;;;4969104;28;20210;-77
2021/11/10 11:40:37;;;;;;;4.60;4.20;;;;;;;;;;4974723;28;20771;-77
2021/11/10 11:43:06;;;;;;;3.50;3.20;;;;;;;;;;4974278;28;20261;-77
2021/11/10 11:45:36;;;;;;;3.88;3.47;;;;;;;;;;4968560;28;20194;-77
2021/11/10 11:48:03;;;;;;;6.43;4.07;;;;;;;;;;4969650;28;20699;-75
2021/11/10 11:50:32;;;;;;;4.53;4.13;;;;;;;;;;4972842;28;20596;-77
2021/11/10 11:52:59;;;;;;;6.80;4.40;;;;;;;;;;4971131;28;20201;-77
2021/11/10 11:55:27;;;;;;;4.03;3.53;;;;;;;;;;4960185;28;20194;-77
2021/11/10 11:58:03;;;;;;;4.00;3.58;;;;;;;;;;4969629;28;20220;-77
2021/11/10 12:00:31;;;;;;;4.75;3.63;;;;;;;;;;4963528;28;20602;-78
2021/11/10 12:03:03;;;;;;;4.35;3.00;;;;;;;;;;4975000;28;20193;-77
2021/11/10 12:05:31;;;;;;;6.90;4.10;;;;;;;;;;4975210;28;20216;-77
2021/11/10 12:07:59;;;;;;;3.92;3.50;;;;;;;;;;4965806;28;20846;-77
2021/11/10 12:10:40;;;;;;;5.03;3.22;;;;;;;;;;4963020;28;20225;-77
2021/11/10 12:13:17;;;;;;;7.05;4.32;;;;;;;;;;4993093;28;20208;-76
2021/11/10 12:16:03;;;;;;;5.45;4.40;;;;;;;;;;4981650;28;20189;-77
2021/11/10 12:18:40;;;;;;;7.30;4.25;;;;;;;;;;4967093;28;20647;-77
2021/11/10 12:21:07;;;;;;;7.97;4.22;;;;;;;;;;4955362;28;20198;-77
2021/11/10 12:23:49;;;;;;;5.53;3.38;;;;;;;;;;4955505;28;20232;-80
2021/11/10 12:26:17;;;;;;;4.55;3.30;;;;;;;;;;4970008;28;20202;-85
2021/11/10 12:28:50;;;;;;;6.47;4.13;;;;;;;;;;4977177;28;20197;-84
2021/11/10 12:31:28;;;;;;;4.55;3.80;;;;;;;;;;4968169;28;20217;-83
2021/11/10 12:33:56;;;;;;;4.88;4.28;;;;;;;;;;4963365;28;20204;-84
2021/11/10 12:36:45;;;;;;;4.13;3.60;;;;;;;;;;4972905;28;20216;-83
2021/11/10 12:39:12;;;;;;;4.05;3.65;;;;;;;;;;4968022;28;20213;-78
2021/11/10 12:41:46;;;;;;;8.98;3.35;;;;;;;;;;4973548;28;20200;-77
2021/11/10 12:44:24;;;;;;;5.88;3.72;;;;;;;;;;4967815;28;20205;-79
2021/11/10 12:46:52;;;;;;;5.30;4.03;;;;;;;;;;4971806;28;20723;-78
2021/11/10 12:49:20;;;;;;;3.53;3.22;;;;;;;;;;4971939;28;20194;-78
2021/11/10 12:52:07;;;;;;;6.03;3.30;;;;;;;;;;4972877;28;20221;-78
2021/11/10 12:54:34;;;;;;;5.70;3.50;;;;;;;;;;4967389;28;20208;-78
2021/11/10 12:57:01;;;;;;;4.25;2.83;;;;;;;;;;4973087;28;20194;-77
2021/11/10 12:59:30;;;;;;;4.70;3.38;;;;;;;;;;4972278;28;20694;-78
2021/11/10 13:01:58;;;;;;;4.20;3.10;;;;;;;;;;4971894;28;20244;-79
2021/11/10 13:04:27;;;;;;;4.93;3.40;;;;;;;;;;4961456;28;20222;-78
2021/11/10 13:06:57;;;;;;;4.15;3.75;;;;;;;;;;4974005;28;20225;-79
2021/11/10 13:09:34;;;;;;;5.40;3.67;;;;;;;;;;4973372;28;20213;-78
2021/11/10 13:12:02;;;;;;;3.70;3.40;;;;;;;;;;4977463;28;20305;-78
2021/11/10 13:14:29;;;;;;;5.18;3.72;;;;;;;;;;4969984;28;20206;-78
2021/11/10 13:16:57;;;;;;;4.18;3.80;;;;;;;;;;4967071;28;20224;-79
2021/11/10 13:19:25;;;;;;;6.18;3.65;;;;;;;;;;4972288;28;20197;-78
2021/11/10 13:21:54;;;;;;;3.70;3.40;;;;;;;;;;4972631;28;20201;-78
2021/11/10 13:24:22;;;;;;;3.92;3.40;;;;;;;;;;4968991;28;20197;-78
2021/11/10 13:26:53;;;;;;;3.25;2.90;;;;;;;;;;4975950;28;20669;-78
2021/11/10 13:29:20;;;;;;;4.82;4.25;;;;;;;;;;4957426;28;20242;-78
2021/11/10 13:31:47;;;;;;;4.25;3.25;;;;;;;;;;4957420;28;20232;-78
2021/11/10 13:34:14;;;;;;;4.03;3.20;;;;;;;;;;4976662;28;20196;-77
2021/11/10 13:36:41;;;;;;;5.30;3.70;;;;;;;;;;4975701;28;20197;-78
2021/11/10 13:39:11;;;;;;;6.57;4.25;;;;;;;;;;4974074;28;20201;-78
2021/11/10 13:41:40;;;;;;;3.83;3.30;;;;;;;;;;4965710;28;20208;-79
2021/11/10 13:44:08;;;;;;;4.90;3.20;;;;;;;;;;4974856;28;20201;-79
2021/11/10 13:46:36;;;;;;;3.63;3.05;;;;;;;;;;4975106;28;20670;-79
2021/11/10 13:49:05;;;;;;;5.03;4.15;;;;;;;;;;4971356;28;20208;-78
2021/11/10 13:51:32;;;;;;;5.15;3.35;;;;;;;;;;4973287;28;20216;-78
2021/11/10 13:54:03;;;;;;;7.93;3.60;;;;;;;;;;4961332;28;20618;-79
2021/11/10 13:56:38;;;;;;;3.65;3.20;;;;;;;;;;4975620;28;20194;-78
2021/11/10 13:59:10;;;;;;;6.40;4.13;;;;;;;;;;4975662;28;20689;-78
2021/11/10 14:01:40;;;;;;;3.90;3.42;;;;;;;;;;4975202;28;20626;-78
2021/11/10 14:04:07;;;;;;;3.42;2.72;;;;;;;;;;4973196;28;20553;-78
2021/11/10 14:06:35;;;;;;;3.83;2.72;;;;;;;;;;4969761;28;20197;-77
2021/11/10 14:09:08;;;;;;;3.97;3.58;;;;;;;;;;4964699;28;20210;-78
2021/11/10 14:11:35;;;;;;;5.80;3.60;;;;;;;;;;4956272;28;20248;-78
2021/11/10 14:14:04;;;;;;;7.72;3.75;;;;;;;;;;4960159;28;20293;-78
2021/11/10 14:16:31;;;;;;;4.45;3.38;;;;;;;;;;4970171;28;20198;-79
2021/11/10 14:18:58;;;;;;;4.63;3.10;;;;;;;;;;4975659;28;20197;-79
2021/11/10 14:21:27;;;;;;;3.97;3.38;;;;;;;;;;4975456;28;20209;-78
2021/11/10 14:23:59;;;;;;;5.28;3.90;;;;;;;;;;4971797;28;20666;-78
2021/11/10 14:26:28;;;;;;;6.75;3.35;;;;;;;;;;4976040;28;20229;-78
2021/11/10 14:28:55;;;;;;;3.22;2.85;;;;;;;;;;4963813;28;20203;-79
2021/11/10 14:31:25;;;;;;;4.10;2.95;;;;;;;;;;4956362;28;20281;-79
2021/11/10 14:33:57;;;;;;;4.28;3.17;;;;;;;;;;4969046;28;20220;-79
2021/11/10 14:36:24;;;;;;;4.30;3.53;;;;;;;;;;4971343;28;20201;-78
2021/11/10 14:38:53;;;;;;;2.65;2.42;;;;;;;;;;4964739;28;20202;-78
2021/11/10 14:41:23;;;;;;;3.50;3.08;;;;;;;;;;4975069;28;20206;-77
2021/11/10 14:43:56;;;;;;;5.75;3.63;;;;;;;;;;4974532;28;20202;-78
2021/11/10 14:46:30;;;;;;;3.75;2.90;;;;;;;;;;4967977;28;20279;-78
2021/11/10 14:49:02;;;;;;;4.15;3.00;;;;;;;;;;4974718;28;20565;-77